sensor_id;sensor_type;location;lat;lon;timestamp;pressure;altitude;pressure_sealevel;temperature;humidity
47726;BME280;33483;48.294;16.388;2024-03-02T00:00:40;98798.59;;;5.04;100.00
47726;BME280;33483;48.294;16.388;2024-03-02T00:03:27;98792.09;;;5.01;100.00
47726;BME280;33483;48.294;16.388;2024-03-02T00:05:55;98803.84;;;5.02;100.00
47726;BME280;33483;48.294;16.388;2024-03-02T00:08:25;98801.38;;;4.98;100.00
47726;BME280;33483;48.294;16.388;2024-03-02T00:10:58;98796.69;;;4.88;100.00
47726;BME280;33483;48.294;16.388;2024-03-02T00:13:25;98805.44;;;4.81;100.00
47726;BME280;33483;48.294;16.388;2024-03-02T00:15:54;98791.25;;;4.71;100.00
47726;BME280;33483;48.294;16.388;2024-03-02T00:18:26;98796.28;;;4.62;100.00
47726;BME280;33483;48.294;16.388;2024-03-02T00:20:54;98796.06;;;4.54;100.00
47726;BME280;33483;48.294;16.388;2024-03-02T00:23:22;98796.31;;;4.50;100.00
47726;BME280;33483;48.294;16.388;2024-03-02T00:25:53;98789.34;;;4.49;100.00
47726;BME280;33483;48.294;16.388;2024-03-02T00:28:21;98795.34;;;4.48;100.00
47726;BME280;33483;48.294;16.388;2024-03-02T00:30:56;98798.09;;;4.48;100.00
47726;BME280;33483;48.294;16.388;2024-03-02T00:33:27;98790.34;;;4.46;100.00
47726;BME280;33483;48.294;16.388;2024-03-02T00:35:55;98788.09;;;4.45;100.00
47726;BME280;33483;48.294;16.388;2024-03-02T00:38:22;98790.13;;;4.39;100.00
47726;BME280;33483;48.294;16.388;2024-03-02T00:40:50;98777.19;;;4.34;100.00
47726;BME280;33483;48.294;16.388;2024-03-02T00:43:31;98782.94;;;4.30;100.00
47726;BME280;33483;48.294;16.388;2024-03-02T00:46:09;98775.94;;;4.29;100.00
47726;BME280;33483;48.294;16.388;2024-03-02T00:48:37;98782.69;;;4.28;100.00
47726;BME280;33483;48.294;16.388;2024-03-02T00:51:05;98781.94;;;4.22;100.00
47726;BME280;33483;48.294;16.388;2024-03-02T00:53:32;98782.47;;;4.15;100.00
47726;BME280;33483;48.294;16.388;2024-03-02T00:56:00;98775.50;;;4.09;100.00
47726;BME280;33483;48.294;16.388;2024-03-02T00:58:27;98774.28;;;4.04;100.00
47726;BME280;33483;48.294;16.388;2024-03-02T01:00:55;98777.28;;;4.01;100.00
47726;BME280;33483;48.294;16.388;2024-03-02T01:03:22;98779.50;;;3.97;100.00
47726;BME280;33483;48.294;16.388;2024-03-02T01:05:49;98779.75;;;3.93;100.00
47726;BME280;33483;48.294;16.388;2024-03-02T01:08:16;98776.78;;;3.91;100.00
47726;BME280;33483;48.294;16.388;2024-03-02T01:10:44;98769.06;;;3.90;100.00
47726;BME280;33483;48.294;16.388;2024-03-02T01:13:11;98771.03;;;3.84;100.00
47726;BME280;33483;48.294;16.388;2024-03-02T01:15:40;98772.81;;;3.81;100.00
47726;BME280;33483;48.294;16.388;2024-03-02T01:18:07;98779.75;;;3.77;100.00
47726;BME280;33483;48.294;16.388;2024-03-02T01:20:37;98780.53;;;3.72;100.00
47726;BME280;33483;48.294;16.388;2024-03-02T01:23:04;98778.03;;;3.74;100.00
47726;BME280;33483;48.294;16.388;2024-03-02T01:25:34;98779.53;;;3.69;100.00
47726;BME280;33483;48.294;16.388;2024-03-02T01:28:04;98780.53;;;3.66;100.00
47726;BME280;33483;48.294;16.388;2024-03-02T01:30:32;98781.53;;;3.63;100.00
47726;BME280;33483;48.294;16.388;2024-03-02T01:32:59;98781.53;;;3.80;100.00
47726;BME280;33483;48.294;16.388;2024-03-02T01:35:27;98784.00;;;3.94;100.00
47726;BME280;33483;48.294;16.388;2024-03-02T01:37:54;98777.28;;;3.90;100.00
47726;BME280;33483;48.294;16.388;2024-03-02T01:40:21;98783.25;;;3.88;100.00
47726;BME280;33483;48.294;16.388;2024-03-02T01:42:50;98776.78;;;3.97;100.00
47726;BME280;33483;48.294;16.388;2024-03-02T01:45:17;98783.00;;;3.97;100.00
47726;BME280;33483;48.294;16.388;2024-03-02T01:47:44;98787.47;;;3.95;100.00
47726;BME280;33483;48.294;16.388;2024-03-02T01:50:14;98778.00;;;4.07;100.00
47726;BME280;33483;48.294;16.388;2024-03-02T01:52:41;98777.47;;;4.19;100.00
47726;BME280;33483;48.294;16.388;2024-03-02T01:55:09;98786.38;;;4.36;100.00
47726;BME280;33483;48.294;16.388;2024-03-02T01:57:37;98776.44;;;4.28;100.00
47726;BME280;33483;48.294;16.388;2024-03-02T02:00:05;98776.44;;;4.33;100.00
47726;BME280;33483;48.294;16.388;2024-03-02T02:02:38;98774.19;;;4.37;100.00
47726;BME280;33483;48.294;16.388;2024-03-02T02:05:07;98763.69;;;4.36;100.00
47726;BME280;33483;48.294;16.388;2024-03-02T02:07:34;98759.72;;;4.31;100.00
47726;BME280;33483;48.294;16.388;2024-03-02T02:10:02;98756.50;;;4.27;100.00
47726;BME280;33483;48.294;16.388;2024-03-02T02:12:29;98759.75;;;4.20;100.00
47726;BME280;33483;48.294;16.388;2024-03-02T02:14:57;98765.28;;;4.15;100.00
47726;BME280;33483;48.294;16.388;2024-03-02T02:17:24;98757.06;;;4.09;100.00
47726;BME280;33483;48.294;16.388;2024-03-02T02:19:51;98756.06;;;4.07;100.00
47726;BME280;33483;48.294;16.388;2024-03-02T02:22:22;98759.31;;;4.05;100.00
47726;BME280;33483;48.294;16.388;2024-03-02T02:24:49;98751.59;;;3.98;100.00
47726;BME280;33483;48.294;16.388;2024-03-02T02:27:16;98749.09;;;3.95;100.00
47726;BME280;33483;48.294;16.388;2024-03-02T02:29:43;98747.59;;;3.99;100.00
47726;BME280;33483;48.294;16.388;2024-03-02T02:32:10;98742.84;;;4.05;100.00
47726;BME280;33483;48.294;16.388;2024-03-02T02:34:37;98741.38;;;4.04;100.00
47726;BME280;33483;48.294;16.388;2024-03-02T02:37:04;98733.16;;;3.99;100.00
47726;BME280;33483;48.294;16.388;2024-03-02T02:39:32;98731.19;;;3.94;100.00
47726;BME280;33483;48.294;16.388;2024-03-02T02:41:59;98727.69;;;3.93;100.00
47726;BME280;33483;48.294;16.388;2024-03-02T02:44:28;98737.41;;;3.89;100.00
47726;BME280;33483;48.294;16.388;2024-03-02T02:46:57;98742.66;;;3.87;100.00
47726;BME280;33483;48.294;16.388;2024-03-02T02:49:24;98745.63;;;3.94;100.00
47726;BME280;33483;48.294;16.388;2024-03-02T02:51:51;98744.81;;;4.16;100.00
47726;BME280;33483;48.294;16.388;2024-03-02T02:54:19;98749.28;;;4.30;100.00
47726;BME280;33483;48.294;16.388;2024-03-02T02:56:46;98747.97;;;4.42;100.00
47726;BME280;33483;48.294;16.388;2024-03-02T02:59:15;98740.50;;;4.42;100.00
47726;BME280;33483;48.294;16.388;2024-03-02T03:01:45;98739.00;;;4.41;100.00
47726;BME280;33483;48.294;16.388;2024-03-02T03:04:12;98737.78;;;4.37;100.00
47726;BME280;33483;48.294;16.388;2024-03-02T03:06:39;98734.28;;;4.31;100.00
47726;BME280;33483;48.294;16.388;2024-03-02T03:09:06;98734.81;;;4.29;100.00
47726;BME280;33483;48.294;16.388;2024-03-02T03:11:33;98732.56;;;4.22;100.00
47726;BME280;33483;48.294;16.388;2024-03-02T03:14:00;98734.84;;;4.18;100.00
47726;BME280;33483;48.294;16.388;2024-03-02T03:16:28;98735.56;;;4.30;100.00
47726;BME280;33483;48.294;16.388;2024-03-02T03:18:55;98742.25;;;4.34;100.00
47726;BME280;33483;48.294;16.388;2024-03-02T03:21:22;98740.53;;;4.31;100.00
47726;BME280;33483;48.294;16.388;2024-03-02T03:23:50;98741.03;;;4.30;100.00
47726;BME280;33483;48.294;16.388;2024-03-02T03:26:17;98748.50;;;4.29;100.00
47726;BME280;33483;48.294;16.388;2024-03-02T03:28:47;98744.28;;;4.28;100.00
47726;BME280;33483;48.294;16.388;2024-03-02T03:31:16;98747.75;;;4.34;100.00
47726;BME280;33483;48.294;16.388;2024-03-02T03:33:43;98747.28;;;4.30;100.00
47726;BME280;33483;48.294;16.388;2024-03-02T03:36:10;98755.25;;;4.34;100.00
47726;BME280;33483;48.294;16.388;2024-03-02T03:38:38;98748.78;;;4.26;100.00
47726;BME280;33483;48.294;16.388;2024-03-02T03:41:04;98742.53;;;4.25;100.00
47726;BME280;33483;48.294;16.388;2024-03-02T03:43:32;98752.28;;;4.26;100.00
47726;BME280;33483;48.294;16.388;2024-03-02T03:45:59;98749.78;;;4.28;100.00
47726;BME280;33483;48.294;16.388;2024-03-02T03:48:26;98745.25;;;4.31;100.00
47726;BME280;33483;48.294;16.388;2024-03-02T03:50:57;98754.50;;;4.28;100.00
47726;BME280;33483;48.294;16.388;2024-03-02T03:53:24;98748.78;;;4.26;100.00
47726;BME280;33483;48.294;16.388;2024-03-02T03:55:51;98755.78;;;4.21;100.00
47726;BME280;33483;48.294;16.388;2024-03-02T03:58:19;98757.78;;;4.15;100.00
47726;BME280;33483;48.294;16.388;2024-03-02T04:00:49;98763.25;;;4.15;100.00
47726;BME280;33483;48.294;16.388;2024-03-02T04:03:16;98756.56;;;4.11;100.00
47726;BME280;33483;48.294;16.388;2024-03-02T04:05:43;98760.78;;;4.06;100.00
47726;BME280;33483;48.294;16.388;2024-03-02T04:08:10;98749.09;;;4.06;100.00
47726;BME280;33483;48.294;16.388;2024-03-02T04:10:40;98751.84;;;4.06;100.00
47726;BME280;33483;48.294;16.388;2024-03-02T04:13:09;98755.56;;;4.08;100.00
47726;BME280;33483;48.294;16.388;2024-03-02T04:15:36;98753.31;;;4.07;100.00
47726;BME280;33483;48.294;16.388;2024-03-02T04:18:04;98747.56;;;4.10;100.00
47726;BME280;33483;48.294;16.388;2024-03-02T04:20:30;98750.31;;;4.10;100.00
47726;BME280;33483;48.294;16.388;2024-03-02T04:22:58;98751.56;;;4.09;100.00
47726;BME280;33483;48.294;16.388;2024-03-02T04:25:25;98759.03;;;4.09;100.00
47726;BME280;33483;48.294;16.388;2024-03-02T04:27:52;98771.03;;;4.11;100.00
47726;BME280;33483;48.294;16.388;2024-03-02T04:30:19;98769.50;;;4.10;100.00
47726;BME280;33483;48.294;16.388;2024-03-02T04:32:47;98769.50;;;4.10;100.00
47726;BME280;33483;48.294;16.388;2024-03-02T04:35:16;98774.03;;;4.08;100.00
47726;BME280;33483;48.294;16.388;2024-03-02T04:37:43;98776.25;;;4.04;100.00
47726;BME280;33483;48.294;16.388;2024-03-02T04:40:15;98772.50;;;4.01;100.00
47726;BME280;33483;48.294;16.388;2024-03-02T04:42:42;98779.25;;;4.00;100.00
47726;BME280;33483;48.294;16.388;2024-03-02T04:45:10;98779.00;;;3.98;100.00
47726;BME280;33483;48.294;16.388;2024-03-02T04:47:37;98788.75;;;3.88;100.00
47726;BME280;33483;48.294;16.388;2024-03-02T04:50:06;98791.50;;;3.83;100.00
47726;BME280;33483;48.294;16.388;2024-03-02T04:52:34;98798.94;;;3.77;100.00
47726;BME280;33483;48.294;16.388;2024-03-02T04:55:02;98797.97;;;3.80;100.00
47726;BME280;33483;48.294;16.388;2024-03-02T04:57:47;98800.72;;;3.85;100.00
47726;BME280;33483;48.294;16.388;2024-03-02T05:00:15;98803.44;;;3.91;100.00
47726;BME280;33483;48.294;16.388;2024-03-02T05:02:45;98803.69;;;3.93;100.00
47726;BME280;33483;48.294;16.388;2024-03-02T05:05:12;98806.41;;;4.04;100.00
47726;BME280;33483;48.294;16.388;2024-03-02T05:07:39;98805.41;;;4.01;100.00
47726;BME280;33483;48.294;16.388;2024-03-02T05:10:08;98811.16;;;4.03;100.00
47726;BME280;33483;48.294;16.388;2024-03-02T05:12:35;98813.88;;;4.09;100.00
47726;BME280;33483;48.294;16.388;2024-03-02T05:15:02;98814.38;;;4.13;100.00
47726;BME280;33483;48.294;16.388;2024-03-02T05:17:30;98815.63;;;4.17;100.00
47726;BME280;33483;48.294;16.388;2024-03-02T05:19:57;98816.38;;;4.12;100.00
47726;BME280;33483;48.294;16.388;2024-03-02T05:22:24;98818.09;;;4.15;100.00
47726;BME280;33483;48.294;16.388;2024-03-02T05:24:52;98822.34;;;4.16;100.00
47726;BME280;33483;48.294;16.388;2024-03-02T05:27:21;98822.34;;;4.22;100.00
47726;BME280;33483;48.294;16.388;2024-03-02T05:29:49;98825.81;;;4.22;100.00
47726;BME280;33483;48.294;16.388;2024-03-02T05:32:16;98827.56;;;4.25;100.00
47726;BME280;33483;48.294;16.388;2024-03-02T05:34:45;98819.81;;;4.35;100.00
47726;BME280;33483;48.294;16.388;2024-03-02T05:37:13;98825.53;;;4.42;100.00
47726;BME280;33483;48.294;16.388;2024-03-02T05:39:40;98833.25;;;4.44;100.00
47726;BME280;33483;48.294;16.388;2024-03-02T05:42:07;98827.25;;;4.51;100.00
47726;BME280;33483;48.294;16.388;2024-03-02T05:44:35;98821.00;;;4.56;100.00
47726;BME280;33483;48.294;16.388;2024-03-02T05:47:02;98829.72;;;4.60;100.00
47726;BME280;33483;48.294;16.388;2024-03-02T05:49:30;98827.72;;;4.60;100.00
47726;BME280;33483;48.294;16.388;2024-03-02T05:51:59;98828.72;;;4.63;100.00
47726;BME280;33483;48.294;16.388;2024-03-02T05:54:27;98833.44;;;4.63;100.00
47726;BME280;33483;48.294;16.388;2024-03-02T05:56:54;98838.69;;;4.66;100.00
47726;BME280;33483;48.294;16.388;2024-03-02T05:59:21;98835.16;;;4.71;100.00
47726;BME280;33483;48.294;16.388;2024-03-02T06:01:48;98843.41;;;4.71;100.00
47726;BME280;33483;48.294;16.388;2024-03-02T06:04:17;98842.63;;;4.76;100.00
47726;BME280;33483;48.294;16.388;2024-03-02T06:06:44;98852.88;;;4.76;100.00
47726;BME280;33483;48.294;16.388;2024-03-02T06:09:12;98861.59;;;4.80;100.00
47726;BME280;33483;48.294;16.388;2024-03-02T06:11:41;98866.53;;;4.87;100.00
47726;BME280;33483;48.294;16.388;2024-03-02T06:14:08;98865.31;;;4.88;100.00
47726;BME280;33483;48.294;16.388;2024-03-02T06:16:35;98861.53;;;4.91;100.00
47726;BME280;33483;48.294;16.388;2024-03-02T06:19:03;98856.78;;;4.97;100.00
47726;BME280;33483;48.294;16.388;2024-03-02T06:21:30;98859.75;;;4.99;100.00
47726;BME280;33483;48.294;16.388;2024-03-02T06:23:57;98857.00;;;5.04;100.00
47726;BME280;33483;48.294;16.388;2024-03-02T06:26:24;98861.25;;;5.05;100.00
47726;BME280;33483;48.294;16.388;2024-03-02T06:28:54;98853.19;;;5.13;100.00
47726;BME280;33483;48.294;16.388;2024-03-02T06:31:21;98853.44;;;5.20;100.00
47726;BME280;33483;48.294;16.388;2024-03-02T06:33:48;98856.91;;;5.26;100.00
47726;BME280;33483;48.294;16.388;2024-03-02T06:36:15;98858.13;;;5.31;100.00
47726;BME280;33483;48.294;16.388;2024-03-02T06:38:44;98863.06;;;5.38;100.00
47726;BME280;33483;48.294;16.388;2024-03-02T06:41:11;98856.31;;;5.39;100.00
47726;BME280;33483;48.294;16.388;2024-03-02T06:43:38;98865.06;;;5.37;100.00
47726;BME280;33483;48.294;16.388;2024-03-02T06:46:05;98864.28;;;5.42;100.00
47726;BME280;33483;48.294;16.388;2024-03-02T06:48:39;98866.25;;;5.47;100.00
47726;BME280;33483;48.294;16.388;2024-03-02T06:51:06;98862.50;;;5.50;100.00
47726;BME280;33483;48.294;16.388;2024-03-02T06:53:33;98864.50;;;5.50;100.00
47726;BME280;33483;48.294;16.388;2024-03-02T06:56:03;98868.94;;;5.58;100.00
47726;BME280;33483;48.294;16.388;2024-03-02T06:58:31;98870.09;;;5.68;100.00
47726;BME280;33483;48.294;16.388;2024-03-02T07:01:01;98880.78;;;5.78;100.00
47726;BME280;33483;48.294;16.388;2024-03-02T07:03:31;98875.78;;;5.82;100.00
47726;BME280;33483;48.294;16.388;2024-03-02T07:06:00;98883.03;;;5.85;100.00
47726;BME280;33483;48.294;16.388;2024-03-02T07:08:27;98872.75;;;5.91;100.00
47726;BME280;33483;48.294;16.388;2024-03-02T07:10:54;98867.13;;;6.02;100.00
47726;BME280;33483;48.294;16.388;2024-03-02T07:13:22;98872.16;;;6.03;100.00
47726;BME280;33483;48.294;16.388;2024-03-02T07:15:49;98873.63;;;6.04;100.00
47726;BME280;33483;48.294;16.388;2024-03-02T07:18:31;98875.59;;;6.09;100.00
47726;BME280;33483;48.294;16.388;2024-03-02T07:21:03;98865.22;;;6.21;100.00
47726;BME280;33483;48.294;16.388;2024-03-02T07:23:35;98861.47;;;6.24;100.00
47726;BME280;33483;48.294;16.388;2024-03-02T07:26:03;98864.59;;;6.33;100.00
47726;BME280;33483;48.294;16.388;2024-03-02T07:28:33;98869.50;;;6.46;100.00
47726;BME280;33483;48.294;16.388;2024-03-02T07:31:00;98874.72;;;6.49;100.00
47726;BME280;33483;48.294;16.388;2024-03-02T07:33:31;98871.16;;;6.54;100.00
47726;BME280;33483;48.294;16.388;2024-03-02T07:35:59;98875.63;;;6.57;100.00
47726;BME280;33483;48.294;16.388;2024-03-02T07:38:31;98878.16;;;6.55;100.00
47726;BME280;33483;48.294;16.388;2024-03-02T07:41:00;98885.53;;;6.66;100.00
47726;BME280;33483;48.294;16.388;2024-03-02T07:43:27;98890.75;;;6.69;100.00
47726;BME280;33483;48.294;16.388;2024-03-02T07:45:54;98899.19;;;6.77;100.00
47726;BME280;33483;48.294;16.388;2024-03-02T07:48:22;98907.88;;;6.87;100.00
47726;BME280;33483;48.294;16.388;2024-03-02T07:50:49;98903.03;;;6.93;100.00
47726;BME280;33483;48.294;16.388;2024-03-02T07:53:17;98900.75;;;6.97;100.00
47726;BME280;33483;48.294;16.388;2024-03-02T07:55:44;98907.81;;;6.92;100.00
47726;BME280;33483;48.294;16.388;2024-03-02T07:58:11;98900.28;;;6.93;100.00
47726;BME280;33483;48.294;16.388;2024-03-02T08:00:41;98901.94;;;7.01;100.00
47726;BME280;33483;48.294;16.388;2024-03-02T08:03:08;98896.59;;;7.09;100.00
47726;BME280;33483;48.294;16.388;2024-03-02T08:05:38;98898.06;;;7.10;100.00
47726;BME280;33483;48.294;16.388;2024-03-02T08:08:06;98908.88;;;7.08;100.00
47726;BME280;33483;48.294;16.388;2024-03-02T08:10:33;98900.75;;;7.15;100.00
47726;BME280;33483;48.294;16.388;2024-03-02T08:13:01;98899.00;;;7.18;100.00
47726;BME280;33483;48.294;16.388;2024-03-02T08:15:28;98908.00;;;7.18;100.00
47726;BME280;33483;48.294;16.388;2024-03-02T08:17:55;98904.16;;;7.27;100.00
47726;BME280;33483;48.294;16.388;2024-03-02T08:20:23;98897.06;;;7.31;100.00
47726;BME280;33483;48.294;16.388;2024-03-02T08:22:50;98902.75;;;7.39;100.00
47726;BME280;33483;48.294;16.388;2024-03-02T08:25:20;98902.44;;;7.42;100.00
47726;BME280;33483;48.294;16.388;2024-03-02T08:27:48;98897.81;;;7.50;100.00
47726;BME280;33483;48.294;16.388;2024-03-02T08:30:18;98895.81;;;7.51;100.00
47726;BME280;33483;48.294;16.388;2024-03-02T08:32:48;98897.13;;;7.63;100.00
47726;BME280;33483;48.294;16.388;2024-03-02T08:35:15;98894.59;;;7.65;100.00
47726;BME280;33483;48.294;16.388;2024-03-02T08:37:43;98893.84;;;7.64;100.00
47726;BME280;33483;48.294;16.388;2024-03-02T08:40:11;98898.69;;;7.58;100.00
47726;BME280;33483;48.294;16.388;2024-03-02T08:42:45;98901.06;;;7.67;100.00
47726;BME280;33483;48.294;16.388;2024-03-02T08:45:15;98886.91;;;7.76;100.00
47726;BME280;33483;48.294;16.388;2024-03-02T08:47:42;98892.34;;;7.82;100.00
47726;BME280;33483;48.294;16.388;2024-03-02T08:50:10;98896.69;;;7.77;100.00
47726;BME280;33483;48.294;16.388;2024-03-02T08:52:38;98899.56;;;7.85;100.00
47726;BME280;33483;48.294;16.388;2024-03-02T08:55:05;98902.16;;;7.96;100.00
47726;BME280;33483;48.294;16.388;2024-03-02T08:57:33;98896.88;;;7.98;100.00
47726;BME280;33483;48.294;16.388;2024-03-02T09:00:00;98895.38;;;7.97;100.00
47726;BME280;33483;48.294;16.388;2024-03-02T09:02:28;98897.72;;;8.06;100.00
47726;BME280;33483;48.294;16.388;2024-03-02T09:04:57;98899.03;;;8.18;100.00
47726;BME280;33483;48.294;16.388;2024-03-02T09:07:27;98895.44;;;8.23;100.00
47726;BME280;33483;48.294;16.388;2024-03-02T09:09:54;98895.75;;;8.38;100.00
47726;BME280;33483;48.294;16.388;2024-03-02T09:12:21;98904.97;;;8.41;100.00
47726;BME280;33483;48.294;16.388;2024-03-02T09:14:48;98893.31;;;8.48;100.00
47726;BME280;33483;48.294;16.388;2024-03-02T09:17:15;98900.88;;;8.60;100.00
47726;BME280;33483;48.294;16.388;2024-03-02T09:19:42;98892.47;;;8.66;100.00
47726;BME280;33483;48.294;16.388;2024-03-02T09:22:10;98900.03;;;8.78;100.00
47726;BME280;33483;48.294;16.388;2024-03-02T09:24:37;98905.34;;;8.89;100.00
47726;BME280;33483;48.294;16.388;2024-03-02T09:27:04;98898.44;;;8.96;100.00
47726;BME280;33483;48.294;16.388;2024-03-02T09:29:31;98892.94;;;8.96;100.00
47726;BME280;33483;48.294;16.388;2024-03-02T09:32:01;98895.78;;;9.03;100.00
47726;BME280;33483;48.294;16.388;2024-03-02T09:34:30;98900.16;;;8.99;100.00
47726;BME280;33483;48.294;16.388;2024-03-02T09:37:00;98896.00;;;9.19;100.00
47726;BME280;33483;48.294;16.388;2024-03-02T09:39:27;98897.03;;;9.29;100.00
47726;BME280;33483;48.294;16.388;2024-03-02T09:41:54;98896.00;;;9.52;100.00
47726;BME280;33483;48.294;16.388;2024-03-02T09:44:24;98892.53;;;9.52;100.00
47726;BME280;33483;48.294;16.388;2024-03-02T09:46:52;98887.84;;;9.80;100.00
47726;BME280;33483;48.294;16.388;2024-03-02T09:49:19;98886.19;;;9.98;100.00
47726;BME280;33483;48.294;16.388;2024-03-02T09:51:48;98896.66;;;9.92;100.00
47726;BME280;33483;48.294;16.388;2024-03-02T09:54:18;98885.16;;;9.88;100.00
47726;BME280;33483;48.294;16.388;2024-03-02T09:56:50;98880.50;;;10.03;100.00
47726;BME280;33483;48.294;16.388;2024-03-02T09:59:17;98877.00;;;10.03;100.00
47726;BME280;33483;48.294;16.388;2024-03-02T10:01:57;98884.41;;;10.21;100.00
47726;BME280;33483;48.294;16.388;2024-03-02T10:04:30;98880.81;;;10.34;100.00
47726;BME280;33483;48.294;16.388;2024-03-02T10:07:11;98880.13;;;10.41;100.00
47726;BME280;33483;48.294;16.388;2024-03-02T10:09:42;98878.69;;;10.47;100.00
47726;BME280;33483;48.294;16.388;2024-03-02T10:12:10;98887.94;;;10.50;100.00
47726;BME280;33483;48.294;16.388;2024-03-02T10:14:38;98887.59;;;10.53;100.00
47726;BME280;33483;48.294;16.388;2024-03-02T10:17:07;98879.41;;;10.68;100.00
47726;BME280;33483;48.294;16.388;2024-03-02T10:19:36;98888.28;;;10.74;100.00
47726;BME280;33483;48.294;16.388;2024-03-02T10:22:07;98882.41;;;10.78;100.00
47726;BME280;33483;48.294;16.388;2024-03-02T10:24:39;98882.69;;;10.95;100.00
47726;BME280;33483;48.294;16.388;2024-03-02T10:27:15;98887.16;;;10.98;100.00
47726;BME280;33483;48.294;16.388;2024-03-02T10:29:42;98875.31;;;10.97;100.00
47726;BME280;33483;48.294;16.388;2024-03-02T10:32:09;98878.69;;;11.03;100.00
47726;BME280;33483;48.294;16.388;2024-03-02T10:34:41;98873.16;;;11.03;100.00
47726;BME280;33483;48.294;16.388;2024-03-02T10:37:10;98871.84;;;11.04;100.00
47726;BME280;33483;48.294;16.388;2024-03-02T10:39:37;98877.41;;;11.04;100.00
47726;BME280;33483;48.294;16.388;2024-03-02T10:42:08;98866.84;;;11.03;100.00
47726;BME280;33483;48.294;16.388;2024-03-02T10:44:37;98872.81;;;11.14;100.00
47726;BME280;33483;48.294;16.388;2024-03-02T10:47:08;98877.44;;;11.12;100.00
47726;BME280;33483;48.294;16.388;2024-03-02T10:49:35;98873.41;;;11.20;100.00
47726;BME280;33483;48.294;16.388;2024-03-02T10:52:05;98864.34;;;11.20;100.00
47726;BME280;33483;48.294;16.388;2024-03-02T10:54:32;98868.78;;;11.15;100.00
47726;BME280;33483;48.294;16.388;2024-03-02T10:57:04;98865.06;;;11.13;100.00
47726;BME280;33483;48.294;16.388;2024-03-02T10:59:44;98867.28;;;11.14;100.00
47726;BME280;33483;48.294;16.388;2024-03-02T11:02:17;98872.50;;;11.25;100.00
47726;BME280;33483;48.294;16.388;2024-03-02T11:04:44;98869.50;;;11.16;100.00
47726;BME280;33483;48.294;16.388;2024-03-02T11:07:12;98860.56;;;11.02;100.00
47726;BME280;33483;48.294;16.388;2024-03-02T11:09:52;98868.19;;;11.09;100.00
47726;BME280;33483;48.294;16.388;2024-03-02T11:14:51;98859.78;;;10.94;100.00
47726;BME280;33483;48.294;16.388;2024-03-02T11:17:21;98854.63;;;10.98;100.00
47726;BME280;33483;48.294;16.388;2024-03-02T11:19:50;98862.06;;;11.03;100.00
47726;BME280;33483;48.294;16.388;2024-03-02T11:22:17;98859.78;;;10.94;100.00
47726;BME280;33483;48.294;16.388;2024-03-02T11:24:52;98852.75;;;10.93;100.00
47726;BME280;33483;48.294;16.388;2024-03-02T11:30:06;98855.28;;;10.84;100.00
47726;BME280;33483;48.294;16.388;2024-03-02T11:32:40;98852.72;;;10.86;100.00
47726;BME280;33483;48.294;16.388;2024-03-02T11:35:07;98856.75;;;10.85;100.00
47726;BME280;33483;48.294;16.388;2024-03-02T11:37:34;98863.75;;;10.78;100.00
47726;BME280;33483;48.294;16.388;2024-03-02T11:40:02;98870.94;;;10.74;100.00
47726;BME280;33483;48.294;16.388;2024-03-02T11:42:33;98875.19;;;10.75;100.00
47726;BME280;33483;48.294;16.388;2024-03-02T11:45:00;98869.03;;;10.69;100.00
47726;BME280;33483;48.294;16.388;2024-03-02T11:47:27;98868.53;;;10.70;100.00
47726;BME280;33483;48.294;16.388;2024-03-02T11:50:00;98868.56;;;10.78;100.00
47726;BME280;33483;48.294;16.388;2024-03-02T11:52:29;98879.16;;;10.87;100.00
47726;BME280;33483;48.294;16.388;2024-03-02T11:54:57;98875.09;;;10.88;100.00
47726;BME280;33483;48.294;16.388;2024-03-02T11:57:27;98875.81;;;10.81;100.00
47726;BME280;33483;48.294;16.388;2024-03-02T11:59:58;98868.25;;;10.89;100.00
47726;BME280;33483;48.294;16.388;2024-03-02T12:02:26;98866.66;;;11.01;100.00
47726;BME280;33483;48.294;16.388;2024-03-02T12:04:56;98863.03;;;11.13;100.00
47726;BME280;33483;48.294;16.388;2024-03-02T12:07:24;98873.97;;;11.19;100.00
47726;BME280;33483;48.294;16.388;2024-03-02T12:10:00;98871.34;;;11.13;100.00
47726;BME280;33483;48.294;16.388;2024-03-02T12:12:30;98869.28;;;11.06;100.00
47726;BME280;33483;48.294;16.388;2024-03-02T12:14:57;98867.25;;;11.07;100.00
47726;BME280;33483;48.294;16.388;2024-03-02T12:17:27;98862.78;;;11.04;100.00
47726;BME280;33483;48.294;16.388;2024-03-02T12:19:54;98880.16;;;11.04;100.00
47726;BME280;33483;48.294;16.388;2024-03-02T12:22:21;98869.38;;;10.93;100.00
47726;BME280;33483;48.294;16.388;2024-03-02T12:24:48;98866.09;;;11.02;100.00
47726;BME280;33483;48.294;16.388;2024-03-02T12:27:16;98866.47;;;10.99;100.00
47726;BME280;33483;48.294;16.388;2024-03-02T12:29:45;98871.44;;;11.00;100.00
47726;BME280;33483;48.294;16.388;2024-03-02T12:32:14;98867.06;;;11.05;100.00
47726;BME280;33483;48.294;16.388;2024-03-02T12:34:41;98869.31;;;11.14;100.00
47726;BME280;33483;48.294;16.388;2024-03-02T12:37:11;98874.53;;;11.17;100.00
47726;BME280;33483;48.294;16.388;2024-03-02T12:39:38;98870.84;;;11.22;100.00
47726;BME280;33483;48.294;16.388;2024-03-02T12:42:06;98858.59;;;11.18;100.00
47726;BME280;33483;48.294;16.388;2024-03-02T12:44:33;98872.31;;;11.23;100.00
47726;BME280;33483;48.294;16.388;2024-03-02T12:47:00;98866.06;;;11.30;100.00
47726;BME280;33483;48.294;16.388;2024-03-02T12:49:28;98869.22;;;11.34;100.00
47726;BME280;33483;48.294;16.388;2024-03-02T12:51:58;98859.22;;;11.31;100.00
47726;BME280;33483;48.294;16.388;2024-03-02T12:54:27;98858.69;;;11.33;100.00
47726;BME280;33483;48.294;16.388;2024-03-02T12:56:56;98861.09;;;11.37;100.00
47726;BME280;33483;48.294;16.388;2024-03-02T12:59:26;98867.38;;;11.37;100.00